Weather observations for the past three days for
Allendale County Airport
Imperial (Metric)
Date Time (edt) Wind (mph) Vis. (mi.) Weather Sky Cond. Temperature (ºF) Relative Humidity Wind Chill (°F) Heat Index (°F) Pressure Precipitation (in)
Air Dwpt 6 hour altimeter (in) sea level (mb) 1 hr 3 hr 6 hr
Max. Min.
04 19:55 S 9 10.00 Fair CLR 71.6 48.2 44% 29.99 0.0
04 19:35 SE 9 10.00 Fair CLR 71.6 48.2 44% 29.98 0.0
04 19:15 S 14 G 20 10.00 Fair CLR 73.4 48.2 41% 29.98 0.0
04 18:55 SE 13 G 21 10.00 Fair CLR 75.2 48.2 39% 77 29.97 0.0
04 18:35 SE 14 10.00 Fair CLR 75.2 48.2 39% 77 29.98 0.0
04 18:15 SE 13 10.00 Fair CLR 77 48.2 36% 78 29.97 0.0
04 17:55 S 13 10.00 Fair CLR 78.8 44.6 30% 79 29.97 0.0
04 17:35 S 8 10.00 Fair CLR 78.8 44.6 30% 79 29.97 0.0
04 17:15 SE 9 G 17 10.00 Fair CLR 78.8 44.6 30% 79 29.97 0.0
04 16:55 S 5 10.00 Fair CLR 78.8 41 26% 78 29.97 0.0
04 16:35 Calm 10.00 Fair CLR 78.8 41 26% 78 29.98 0.0
04 16:15 Calm 10.00 Fair CLR 78.8 41 26% 78 29.98 0.0
04 15:55 S 7 10.00 Fair CLR 78.8 42.8 28% 78 29.99 0.0
04 15:35 Calm 10.00 Fair CLR 78.8 39.2 24% 78 30 0.0
04 15:15 Calm 10.00 Fair CLR 77 39.2 26% 77 30.01 0.0
04 14:55 W 5 10.00 Fair CLR 78.8 41 26% 78 30.01 0.0
04 14:35 Calm 10.00 Fair CLR 77 39.2 26% 77 30.02 0.0
04 14:15 Vrbl 5 G 12 10.00 Fair CLR 77 39.2 26% 77 30.03 0.0
04 13:55 Calm 10.00 Fair CLR 77 41 28% 78 30.03 0.0
04 13:35 Calm 10.00 Fair CLR 75.2 39.2 27% 77 30.04 0.0
04 13:15 Calm 10.00 Fair CLR 75.2 39.2 27% 77 30.04 0.0
04 12:35 NW 7 10.00 Fair CLR 75.2 39.2 27% 77 30.06 0.0
04 12:15 Calm 10.00 Fair CLR 73.4 39.2 29% 30.06 0.0
04 11:55 Calm 10.00 Fair CLR 73.4 39.2 29% 30.07 0.0
04 11:35 Vrbl 5 10.00 Fair CLR 73.4 39.2 29% 30.07 0.0
04 11:15 Vrbl 3 10.00 Fair CLR 71.6 41 33% 30.07 0.0
04 10:55 Calm 10.00 Fair CLR 71.6 42.8 36% 30.07 0.0
04 10:35 Calm 10.00 Fair CLR 69.8 44.6 40% 30.08 0.0
04 10:15 Calm 10.00 Fair CLR 68 46.4 46% 30.08 0.0
04 09:55 Calm 10.00 Fair CLR 66.2 50 56% 30.08 0.0
04 09:35 Calm 10.00 Fair CLR 64.4 50 60% 30.08 0.0
04 09:15 Calm 10.00 Fair CLR 62.6 51.8 68% 30.08 0.0
04 08:55 Calm 10.00 Fair CLR 60.8 53.6 77% 30.08 0.0
04 08:35 Calm 10.00 Fair CLR 59 53.6 82% 30.08 0.0
04 08:15 Calm 10.00 Fair CLR 57.2 51.8 82% 30.08 0.0
04 07:55 Calm 10.00 Fair CLR 51.8 51.8 100% 30.08 0.0
04 07:35 Calm 10.00 Fair CLR 50 50 100% 30.08 0.0
04 07:15 Calm 10.00 Fair CLR 48.2 48.2 100% 30.07 0.0
04 06:55 Calm 10.00 Fair CLR 48.2 48.2 100% 30.06 0.0
04 06:35 Calm 10.00 Fair CLR 48.2 48.2 100% 30.06 0.0
04 06:15 Calm 10.00 Fair CLR 48.2 48.2 100% 30.06 0.0
04 05:55 Calm 10.00 Fair CLR 48.2 48.2 100% 30.06 0.0
04 05:35 Calm 10.00 Fair CLR 48.2 48.2 100% 30.06 0.0
04 05:15 Calm 10.00 Fair CLR 48.2 48.2 100% 30.06 0.0
04 04:55 Calm 10.00 Fair CLR 50 48.2 94% 30.05 0.0
04 04:35 Calm 10.00 Fair CLR 50 50 100% 30.05 0.0
04 04:15 Calm 10.00 Fair CLR 50 50 100% 30.05 0.0
04 03:55 Calm 10.00 Fair CLR 51.8 50 94% 30.05 0.0
04 03:35 Calm 10.00 NULL NULL 50 50 100% 30.06 0.0
04 03:15 Calm 10.00 Fair CLR 51.8 50 94% 30.07 0.0
04 02:55 Calm 10.00 Fair CLR 51.8 50 94% 30.08 0.0
04 02:35 Calm 10.00 Fair CLR 51.8 50 94% 30.08 0.0
04 02:15 Calm 10.00 Fair CLR 53.6 50 88% 30.08 0.0
04 01:55 Calm 10.00 Fair CLR 53.6 50 88% 30.08 0.0
04 01:35 Calm 10.00 Fair CLR 53.6 50 88% 30.08 0.0
04 01:15 Calm 10.00 Fair CLR 53.6 50 88% 30.08 0.0
04 00:55 Calm 10.00 Fair CLR 55.4 50 82% 30.08 0.0
04 00:35 Calm 10.00 Fair CLR 55.4 50 82% 30.08 0.0
04 00:15 Calm 10.00 Fair CLR 55.4 50 82% 30.08 0.0
03 23:55 Calm 10.00 Fair CLR 57.2 50 77% 30.08 0.0
03 23:35 Calm 10.00 Fair CLR 57.2 50 77% 30.08 0.0
03 23:15 Calm 10.00 Fair CLR 59 50 72% 30.08 0.0
03 22:55 Calm 10.00 Fair CLR 59 50 72% 30.08 0.0
03 22:35 Calm 10.00 Fair CLR 60.8 50 68% 30.07 0.0
03 22:15 Calm 10.00 Fair CLR 59 50 72% 30.07 0.0
03 21:55 Calm 10.00 Fair CLR 59 50 72% 30.06 0.0
03 21:35 S 5 10.00 Fair CLR 59 50 72% 30.05 0.0
03 21:15 Calm 10.00 Fair CLR 60.8 51.8 72% 30.04 0.0
03 20:55 Calm 10.00 Fair CLR 62.6 50 64% 30.04 0.0
03 20:35 Calm 10.00 Fair CLR 62.6 46.4 56% 30.03 0.0
03 20:15 Calm 10.00 Fair CLR 64.4 46.4 52% 30.03 0.0
03 19:55 Calm 10.00 Fair CLR 66.2 46.4 49% 30.02 0.0
03 19:35 Calm 10.00 Fair CLR 69.8 42.8 38% 30.02 0.0
03 19:15 Calm 10.00 Fair CLR 69.8 42.8 38% 30.02 0.0
03 18:35 Calm 10.00 Fair CLR 71.6 41 33% 30.02 0.0
03 18:15 Vrbl 6 10.00 Fair CLR 71.6 42.8 36% 30.02 0.0
03 17:55 Calm 10.00 Fair CLR 71.6 41 33% 30.03 0.0
03 17:35 Vrbl 5 10.00 Fair CLR 71.6 41 33% 30.02 0.0
03 17:15 Calm 10.00 Fair CLR 71.6 39.2 31% 30.02 0.0
03 16:55 Calm 10.00 Fair CLR 71.6 37.4 29% 30.03 0.0
03 16:35 Vrbl 6 10.00 Fair CLR 71.6 37.4 29% 30.03 0.0
03 16:15 Vrbl 5 10.00 Fair CLR 71.6 39.2 31% 30.04 0.0
03 15:55 Vrbl 5 10.00 Fair CLR 71.6 39.2 31% 30.05 0.0
03 15:35 Calm 10.00 Fair CLR 69.8 37.4 31% 30.05 0.0
03 15:15 Vrbl 6 10.00 Fair CLR 71.6 39.2 31% 30.06 0.0
03 14:55 Calm 10.00 Fair CLR 69.8 37.4 31% 30.08 0.0
03 14:35 S 5 G 13 10.00 Fair CLR 69.8 39.2 33% 30.09 0.0
03 14:15 Vrbl 5 10.00 A Few Clouds FEW065 69.8 37.4 31% 30.09 0.0
03 13:55 Vrbl 6 G 14 10.00 Partly Cloudy SCT065 69.8 35.6 29% 30.1 0.0
03 13:35 W 7 10.00 Partly Cloudy SCT060 68 41 38% 30.1 0.0
03 13:15 Calm 10.00 Partly Cloudy SCT060 68 44.6 43% 30.1 0.0
03 12:55 Calm 10.00 Mostly Cloudy SCT049 BKN060 66.2 46.4 49% 30.11 0.0
03 12:35 NW 6 10.00 Mostly Cloudy FEW041 SCT048 BKN060 68 48.2 49% 30.11 0.0
03 12:15 Calm 10.00 Partly Cloudy FEW044 SCT060 SCT070 66.2 48.2 52% 30.12 0.0
03 11:55 Calm 10.00 Mostly Cloudy FEW034 SCT040 BKN060 66.2 50 56% 30.12 0.0
03 11:35 Calm 10.00 Mostly Cloudy SCT033 BKN040 64.4 50 60% 30.13 0.0
03 11:15 Calm 10.00 A Few Clouds FEW031 62.6 50 64% 30.13 0.0
03 10:55 Calm 10.00 Fair CLR 62.6 51.8 68% 30.13 0.0
03 10:35 Calm 10.00 Fair CLR 62.6 51.8 68% 30.13 0.0
03 10:15 Calm 10.00 Fair CLR 60.8 51.8 72% 30.13 0.0
03 09:55 Calm 10.00 Fair CLR 59 51.8 77% 30.13 0.0
03 09:35 Calm 10.00 Fair CLR 59 53.6 82% 30.12 0.0
03 09:15 Calm 10.00 Fair CLR 57.2 51.8 82% 30.11 0.0
03 08:55 Calm 10.00 Fair CLR 57.2 53.6 88% 30.11 0.0
03 08:35 Calm 10.00 Fair CLR 55.4 55.4 100% 30.11 0.0
03 08:15 Calm 10.00 Fair CLR 51.8 51.8 100% 30.11 0.0
03 07:55 Calm 9.00 Fair CLR 51.8 51.8 100% 30.1 0.0
03 07:35 Calm 6.00 Fog/Mist CLR 50 50 100% 30.1 0.0
03 07:15 Calm 4.00 Fog/Mist CLR 48.2 48.2 100% 30.09 0.0
03 06:55 Calm 4.00 Fog/Mist CLR 48.2 48.2 100% 30.08 0.0
03 06:35 Calm 1.00 Fog/Mist CLR 46.4 46.4 100% 30.07 0.0
03 06:15 Calm 6.00 Fog/Mist CLR 46.4 46.4 100% 30.06 0.0
03 05:55 Calm 4.00 Fog/Mist CLR 48.2 48.2 100% 30.06 0.0
03 05:35 Calm 3.00 Fog/Mist CLR 48.2 48.2 100% 30.05 0.0
03 05:15 Calm 4.00 Fog/Mist CLR 48.2 48.2 100% 30.05 0.0
03 04:55 Calm 3.00 Fog/Mist CLR 48.2 48.2 100% 30.05 0.0
03 04:35 Calm 3.00 Fog/Mist CLR 48.2 48.2 100% 30.05 0.0
03 04:15 Calm 3.00 Fog/Mist CLR 48.2 48.2 100% 30.04 0.0
03 03:55 Calm 2.50 Fog/Mist CLR 50 50 100% 30.04 0.0
03 03:35 Calm 2.50 Fog/Mist CLR 50 50 100% 30.03 0.0
03 03:15 Calm 4.00 Fog/Mist CLR 50 50 100% 30.02 0.0
03 02:55 Calm 4.00 Fog/Mist BKN075 51.8 51.8 100% 30.02 0.0
03 02:35 Calm 4.00 Fog/Mist SCT080 BKN090 51.8 51.8 100% 30.02 0.0
03 02:15 Calm 7.00 Mostly Cloudy SCT075 BKN085 51.8 51.8 100% 30.01 0.0
03 01:55 Calm 9.00 Overcast BKN070 OVC090 53.6 53.6 100% 30.01 0.0
03 01:35 Calm 8.00 Overcast BKN070 OVC090 53.6 53.6 100% 30.01 0.0
03 01:15 Calm 10.00 Mostly Cloudy SCT070 BKN090 53.6 53.6 100% 30.02 0.0
03 00:55 Calm 10.00 Mostly Cloudy BKN085 53.6 53.6 100% 30.02 0.0
03 00:35 Calm 9.00 Overcast BKN080 OVC085 53.6 53.6 100% 30.02 0.0
02 23:55 Calm 7.00 Overcast OVC060 51.8 51.8 100% 30 0.0
02 23:35 Calm 7.00 Overcast BKN060 OVC080 51.8 51.8 100% 29.99 0.0
02 23:15 Calm 7.00 Overcast BKN060 OVC075 51.8 51.8 100% 29.99 0.0
02 22:55 Calm 8.00 NULL NULL 51.8 51.8 100% 29.98 0.0
02 22:35 Calm 8.00 Mostly Cloudy SCT065 BKN080 51.8 51.8 100% 29.97 0.0
02 22:15 Calm 7.00 Partly Cloudy SCT080 51.8 51.8 100% 29.96 0.0
02 21:55 Calm 6.00 Fog/Mist SCT075 51.8 51.8 100% 29.96 0.0
02 21:35 Calm 8.00 A Few Clouds FEW080 53.6 53.6 100% 29.95 0.0
02 21:15 Calm 9.00 Fair CLR 53.6 53.6 100% 29.95 0.0
02 20:55 Calm 10.00 Fair CLR 53.6 53.6 100% 29.94 0.0
02 20:35 Calm 10.00 A Few Clouds FEW100 55.4 53.6 94% 29.93 0.0
02 20:15 Calm 10.00 Mostly Cloudy BKN016 BKN100 55.4 53.6 94% 29.92 0.0
02 19:55 Calm 10.00 Overcast OVC014 55.4 53.6 94% 29.91 0.0
02 19:35 Vrbl 5 10.00 Overcast OVC013 55.4 55.4 100% 29.9 0.0
02 19:15 Calm 10.00 Overcast BKN011 BKN016 OVC065 55.4 55.4 100% 29.89 0.0
02 18:55 Calm 10.00 Mostly Cloudy FEW014 FEW049 BKN065 57.2 55.4 94% 29.89 0.0
02 18:35 Calm 10.00 Mostly Cloudy SCT009 BKN013 BKN049 57.2 55.4 94% 29.89 0.0
02 18:15 N 6 9.00 Overcast OVC011 55.4 55.4 100% 29.89 0.0
02 17:35 N 7 G 13 5.00 Fog/Mist SCT008 BKN013 BKN042 57.2 55.4 94% 29.88 0.0
02 17:15 N 6 4.00 Fog/Mist SCT016 SCT022 SCT060 57.2 57.2 100% 29.87 0.0
02 16:55 N 8 2.00 Light Rain Fog/Mist SCT016 BKN022 57.2 57.2 100% 29.87 0.0 0.01
02 16:35 N 8 G 15 2.00 Unknown Precip Fog/Mist FEW016 SCT024 BKN039 59 59 100% 29.86 0.0
02 16:15 N 8 2.00 Light Rain Fog/Mist FEW008 SCT015 BKN019 59 59 100% 29.86 0.0
02 15:35 NE 6 G 12 9.00 Overcast SCT030 BKN036 OVC050 59 57.2 94% 29.85 0.0
02 15:15 N 9 9.00 Mostly Cloudy FEW009 SCT028 BKN050 59 59 100% 29.86 0.0
02 14:55 N 8 G 16 2.00 Unknown Precip Fog/Mist CLR 59 59 100% 29.86 0.0 0.01
02 14:35 N 5 G 12 1.75 Light Rain Fog/Mist CLR 59 59 100% 29.87 0.0
02 14:15 N 7 1.75 Fog/Mist SCT007 SCT013 SCT017 59 59 100% 29.87 0.0
02 13:55 N 8 1.00 Light Rain Fog/Mist SCT007 SCT010 BKN014 59 59 100% 29.86 0.0 0.01
02 13:35 Calm 10.00 Mostly Cloudy FEW006 SCT013 BKN036 59 59 100% 29.86 0.0
02 13:15 N 5 8.00 Mostly Cloudy SCT007 SCT014 BKN024 59 59 100% 29.86 0.0
02 12:55 N 6 5.00 Light Rain Fog/Mist FEW007 FEW014 BKN037 59 59 100% 29.86 0.0 0.06
02 12:35 Calm 4.00 Light Rain Fog/Mist FEW007 SCT014 BKN035 59 59 100% 29.87 0.0
02 12:15 N 7 2.50 Rain Fog/Mist SCT008 SCT014 BKN025 59 59 100% 29.89 0.0
02 11:55 N 7 6.00 Light Rain Fog/Mist BKN032 59 59 100% 29.86 0.0 0.06
02 11:35 N 6 4.00 Light Rain Fog/Mist OVC033 57.2 57.2 100% 29.87 0.0
02 11:15 N 5 4.00 Light Rain Fog/Mist FEW006 FEW019 BKN025 57.2 57.2 100% 29.88 0.0
02 10:55 N 3 2.50 Light Rain Fog/Mist FEW008 SCT015 BKN019 57.2 57.2 100% 29.89 0.0 0.13
02 10:35 Calm 2.50 Light Rain Fog/Mist FEW007 BKN015 OVC024 57.2 57.2 100% 29.89 0.0
02 10:15 Calm 2.00 Rain Fog/Mist FEW007 SCT024 OVC029 57.2 57.2 100% 29.9 0.0
02 09:55 Calm 2.50 Light Rain Fog/Mist FEW008 BKN029 OVC033 57.2 57.2 100% 29.88 0.0 0.07
02 09:35 Calm 4.00 Light Rain Fog/Mist SCT007 BKN029 57.2 57.2 100% 29.88 0.0
02 09:15 N 6 G 12 4.00 Light Rain Fog/Mist FEW007 BKN029 57.2 57.2 100% 29.87 0.0
02 08:55 N 5 2.00 Rain Fog/Mist FEW007 SCT013 BKN026 57.2 57.2 100% 29.87 0.0 0.17
02 08:35 Calm 1.75 Rain Fog/Mist SCT006 BKN013 OVC024 57.2 57.2 100% 29.88 0.0
02 08:15 N 7 3.00 Light Rain Fog/Mist SCT007 OVC025 57.2 57.2 100% 29.87 0.0
02 07:55 N 6 1.75 Rain Fog/Mist BKN008 OVC025 59 59 100% 29.86 0.0 0.05
02 07:35 Calm 2.50 Light Rain Fog/Mist SCT016 BKN025 BKN042 59 59 100% 29.85 0.0
02 07:15 Calm 9.00 Overcast FEW007 OVC015 59 59 100% 29.84 0.0
02 06:55 N 7 6.00 Unknown Precip Fog/Mist BKN007 BKN013 OVC040 59 59 100% 29.83 0.0 0.02
02 06:35 N 5 6.00 Light Rain Fog/Mist BKN007 BKN028 OVC070 60.8 60.8 100% 29.84 0.0
02 06:15 Calm 5.00 Light Rain Fog/Mist SCT025 BKN033 OVC070 60.8 60.8 100% 29.85 0.0
02 05:55 Calm 4.00 Light Rain Fog/Mist FEW008 BKN023 OVC075 60.8 60.8 100% 29.84 0.0 0.14
02 05:35 Calm 3.00 Light Rain Fog/Mist SCT005 BKN008 OVC021 60.8 60.8 100% 29.86 0.0
02 05:15 Calm 3.00 Light Rain Fog/Mist BKN006 BKN020 OVC035 60.8 60.8 100% 29.86 0.0
02 04:55 Calm 3.00 Light Rain Fog/Mist FEW021 BKN031 OVC070 60.8 60.8 100% 29.86 0.0 0.06
02 04:35 Calm 4.00 Light Rain Fog/Mist BKN030 BKN040 OVC070 60.8 60.8 100% 29.87 0.0
02 04:15 Calm 4.00 Light Rain Fog/Mist BKN028 OVC037 60.8 60.8 100% 29.86 0.0
02 03:55 Calm 2.50 Light Rain Fog/Mist SCT004 BKN008 OVC030 62.6 62.6 100% 29.87 0.0 0.12
02 03:15 Calm 3.00 Light Rain Fog/Mist BKN003 BKN025 OVC038 62.6 62.6 100% 29.87 0.0
02 02:55 Calm 2.50 Light Rain Fog/Mist BKN003 OVC007 62.6 62.6 100% 29.87 0.0 0.01
02 02:35 Calm 3.00 Light Rain Fog/Mist OVC004 62.6 62.6 100% 29.88 0.0
02 02:15 Calm 4.00 Unknown Precip Fog/Mist OVC003 62.6 62.6 100% 29.88 0.0
02 01:55 Calm 3.00 Light Rain Fog/Mist OVC003 62.6 62.6 100% 29.88 0.0 0.06
02 01:35 Calm 3.00 Light Rain Fog/Mist BKN003 OVC007 62.6 62.6 100% 29.89 0.0
02 01:15 Calm 2.50 Light Rain Fog/Mist SCT003 BKN033 OVC049 62.6 62.6 100% 29.89 0.0
02 00:55 Calm 3.00 Light Rain Fog/Mist BKN005 BKN032 OVC048 62.6 62.6 100% 29.89 0.0 0.02
02 00:35 Calm 6.00 Fog/Mist OVC005 62.6 62.6 100% 29.88 0.0
02 00:15 Calm 4.00 Fog/Mist OVC005 62.6 62.6 100% 29.88 0.0
01 23:55 Calm 6.00 Fog/Mist OVC005 62.6 62.6 100% 29.87 0.0
01 23:35 Calm 7.00 Overcast OVC004 62.6 62.6 100% 29.88 0.0
01 23:15 Calm 7.00 Overcast OVC004 62.6 62.6 100% 29.88 0.0
01 22:55 Calm 7.00 Overcast OVC004 62.6 62.6 100% 29.89 0.0
01 22:35 Calm 7.00 Overcast OVC005 62.6 62.6 100% 29.89 0.0
01 22:15 Calm 6.00 Fog/Mist BKN005 OVC039 62.6 62.6 100% 29.89 0.0
01 21:35 Calm 5.00 Fog/Mist BKN004 BKN026 OVC040 62.6 62.6 100% 29.9 0.0
01 21:15 Calm 2.50 Light Rain Fog/Mist BKN004 BKN024 OVC055 60.8 60.8 100% 29.9 0.0
01 20:55 Calm 1.75 Light Rain Fog/Mist BKN006 OVC014 60.8 60.8 100% 29.9 0.0 0.01
01 20:35 Calm 5.00 Fog/Mist FEW005 SCT008 BKN013 60.8 60.8 100% 29.89 0.0
01 20:15 Calm 2.00 Fog/Mist SCT009 BKN012 BKN037 60.8 60.8 100% 29.88 0.0
Date Time (edt) Wind (mph) Vis. (mi.) Weather Sky Cond. Air Dwpt Max. Min. Relative Humidity Wind Chill (°F) Heat Index (°F) altimeter (in) sea level (mb) 1 hr 3 hr 6 hr
6 hour
Temperature (ºF) Pressure Precipitation (in)